createdAt,value
2019-03-05T00:00:43.550Z,61.40
2019-03-05T00:03:13.058Z,61.40
2019-03-05T00:05:42.379Z,61.40
2019-03-05T00:08:11.700Z,61.40
2019-03-05T00:10:41.480Z,61.40
2019-03-05T00:13:10.920Z,61.40
2019-03-05T00:15:40.174Z,61.50
2019-03-05T00:18:09.954Z,61.50
2019-03-05T00:20:39.133Z,61.40
2019-03-05T00:23:08.595Z,61.40
2019-03-05T00:25:38.002Z,61.50
2019-03-05T00:28:14.442Z,61.40
2019-03-05T00:30:50.603Z,61.40
2019-03-05T00:33:32.648Z,61.40
2019-03-05T00:36:18.249Z,61.40
2019-03-05T00:39:30.109Z,61.40
2019-03-05T00:42:24.455Z,61.30
2019-03-05T00:45:22.726Z,61.40
2019-03-05T00:48:33.340Z,61.30
2019-03-05T00:51:33.239Z,61.40
2019-03-05T00:54:56.191Z,61.30
2019-03-05T00:57:59.074Z,61.30
2019-03-05T01:00:47.465Z,61.40
2019-03-05T01:04:09.591Z,61.40
2019-03-05T01:06:39.040Z,61.30
2019-03-05T01:09:15.144Z,61.50
2019-03-05T01:11:44.472Z,61.30
2019-03-05T01:14:14.849Z,61.30
2019-03-05T01:16:44.785Z,61.30
2019-03-05T01:19:14.135Z,61.30
2019-03-05T01:21:43.538Z,61.40
2019-03-05T01:24:13.046Z,61.30
2019-03-05T01:26:42.361Z,61.30
2019-03-05T01:29:11.826Z,61.40
2019-03-05T01:32:00.151Z,61.30
2019-03-05T01:34:49.193Z,61.30
2019-03-05T01:37:18.437Z,61.30
2019-03-05T01:39:56.649Z,61.40
2019-03-05T01:42:26.061Z,61.30
2019-03-05T01:44:55.335Z,61.30
2019-03-05T01:47:25.857Z,61.20
2019-03-05T01:49:55.243Z,61.20
2019-03-05T01:52:24.709Z,61.30
2019-03-05T01:54:53.982Z,61.40
2019-03-05T01:57:23.325Z,61.30
2019-03-05T01:59:52.854Z,61.30
2019-03-05T02:02:22.340Z,61.20
2019-03-05T02:04:51.812Z,61.20
2019-03-05T02:07:21.112Z,61.30
2019-03-05T02:09:50.462Z,61.20
2019-03-05T02:12:20.963Z,61.30
2019-03-05T02:14:50.477Z,61.20
2019-03-05T02:17:19.937Z,61.30
2019-03-05T02:19:50.356Z,61.30
2019-03-05T02:22:34.992Z,61.10
2019-03-05T02:25:24.896Z,61.20
2019-03-05T02:28:27.455Z,61.20
2019-03-05T02:31:53.495Z,61.10
2019-03-05T02:34:54.381Z,61.10
2019-03-05T02:37:49.751Z,61.10
2019-03-05T02:41:01.207Z,61.10
2019-03-05T02:44:02.290Z,61.10
2019-03-05T02:47:12.452Z,61.10
2019-03-05T02:50:22.822Z,61.10
2019-03-05T02:53:33.675Z,61.20
2019-03-05T02:56:40.022Z,61.10
2019-03-05T02:59:08.960Z,61.10
2019-03-05T03:01:56.271Z,61.10
2019-03-05T03:04:28.663Z,61.20
2019-03-05T03:06:57.982Z,61.10
2019-03-05T03:10:13.131Z,61.00
2019-03-05T03:12:43.177Z,61.10
2019-03-05T03:15:14.852Z,61.00
2019-03-05T03:17:44.510Z,61.00
2019-03-05T03:20:18.187Z,61.10
2019-03-05T03:22:47.621Z,61.00
2019-03-05T03:25:18.434Z,61.10
2019-03-05T03:27:47.832Z,61.00
2019-03-05T03:30:18.881Z,61.00
2019-03-05T03:32:48.348Z,60.90
2019-03-05T03:35:17.868Z,61.10
2019-03-05T03:37:47.089Z,61.10
2019-03-05T03:40:18.483Z,61.10
2019-03-05T03:42:48.542Z,61.00
2019-03-05T03:45:19.805Z,61.00
2019-03-05T03:47:49.208Z,61.00
2019-03-05T03:50:18.543Z,61.00
2019-03-05T03:52:47.869Z,61.00
2019-03-05T03:55:17.392Z,61.00
2019-03-05T03:57:46.847Z,61.00
2019-03-05T04:00:23.699Z,61.10
2019-03-05T04:02:53.426Z,61.10
2019-03-05T04:05:22.905Z,61.00
2019-03-05T04:07:52.260Z,61.00
2019-03-05T04:10:21.678Z,61.10
2019-03-05T04:12:51.081Z,61.00
2019-03-05T04:15:21.286Z,61.00
2019-03-05T04:17:50.646Z,61.00
2019-03-05T04:20:32.361Z,61.10
2019-03-05T04:23:01.793Z,61.00
2019-03-05T04:25:31.313Z,60.90
2019-03-05T04:28:02.045Z,60.90
2019-03-05T04:30:31.348Z,61.10
2019-03-05T04:33:00.802Z,61.00
2019-03-05T04:35:30.108Z,60.90
2019-03-05T04:37:59.438Z,60.90
2019-03-05T04:40:28.953Z,60.90
2019-03-05T04:42:58.486Z,60.90
2019-03-05T04:45:55.858Z,60.90
2019-03-05T04:48:25.389Z,61.00
2019-03-05T04:51:00.443Z,60.90
2019-03-05T04:53:29.770Z,60.90
2019-03-05T04:55:59.155Z,60.90
2019-03-05T04:58:28.645Z,60.90
2019-03-05T05:00:58.099Z,61.00
2019-03-05T05:03:27.475Z,60.80
2019-03-05T05:06:00.400Z,60.90
2019-03-05T05:08:29.754Z,60.80
2019-03-05T05:10:59.235Z,60.90
2019-03-05T05:13:28.555Z,60.80
2019-03-05T05:15:58.317Z,60.80
2019-03-05T05:18:27.724Z,60.90
2019-03-05T05:20:56.968Z,60.80
2019-03-05T05:23:26.282Z,60.80
2019-03-05T05:25:55.535Z,60.80
2019-03-05T05:28:24.983Z,60.90
2019-03-05T05:30:54.475Z,60.80
2019-03-05T05:33:25.158Z,60.80
2019-03-05T05:35:54.568Z,60.80
2019-03-05T05:38:23.979Z,60.80
2019-03-05T05:40:53.258Z,60.80
2019-03-05T05:43:27.958Z,60.80
2019-03-05T05:45:57.426Z,60.80
2019-03-05T05:48:26.950Z,60.90
2019-03-05T05:50:56.434Z,60.90
2019-03-05T05:53:25.714Z,60.90
2019-03-05T05:55:56.318Z,61.00
2019-03-05T05:58:25.767Z,60.90
2019-03-05T06:00:57.018Z,60.80
2019-03-05T06:03:26.336Z,60.80
2019-03-05T06:05:55.640Z,60.90
2019-03-05T06:08:25.025Z,60.90
2019-03-05T06:10:54.509Z,60.90
2019-03-05T06:13:23.785Z,60.90
2019-03-05T06:15:53.275Z,60.90
2019-03-05T06:18:22.611Z,60.90
2019-03-05T06:20:52.001Z,60.90
2019-03-05T06:23:21.423Z,60.90
2019-03-05T06:25:50.760Z,60.90
2019-03-05T06:28:20.246Z,60.80
2019-03-05T06:30:50.730Z,60.80
2019-03-05T06:33:20.095Z,60.90
2019-03-05T06:35:49.394Z,60.90
2019-03-05T06:38:18.836Z,60.90
2019-03-05T06:40:48.100Z,60.80
2019-03-05T06:43:18.283Z,60.80
2019-03-05T06:45:47.590Z,60.90
2019-03-05T06:48:16.947Z,61.00
2019-03-05T06:50:46.327Z,60.80
2019-03-05T06:53:15.693Z,61.00
2019-03-05T06:55:44.921Z,60.90
2019-03-05T06:58:14.299Z,60.90
2019-03-05T07:00:43.621Z,61.00
2019-03-05T07:03:13.106Z,60.90
2019-03-05T07:06:18.340Z,60.90
2019-03-05T07:08:52.925Z,60.90
2019-03-05T07:11:55.957Z,60.90
2019-03-05T07:15:02.245Z,61.00
2019-03-05T07:17:38.455Z,61.10
2019-03-05T07:20:27.835Z,60.90
2019-03-05T07:23:11.308Z,61.00
2019-03-05T07:25:40.672Z,61.00
2019-03-05T07:28:10.180Z,60.90
2019-03-05T07:30:39.465Z,61.00
2019-03-05T07:33:08.882Z,61.10
2019-03-05T07:35:38.273Z,61.10
2019-03-05T07:38:07.610Z,61.00
2019-03-05T07:40:36.795Z,61.00
2019-03-05T07:43:06.230Z,60.90
2019-03-05T07:45:35.711Z,60.90
2019-03-05T07:48:05.037Z,61.10
2019-03-05T07:50:34.504Z,61.10
2019-03-05T07:53:03.779Z,61.00
2019-03-05T07:55:32.967Z,61.10
2019-03-05T07:58:02.425Z,61.10
2019-03-05T08:00:31.987Z,61.10
2019-03-05T08:03:01.452Z,61.10
2019-03-05T08:05:30.838Z,61.10
2019-03-05T08:08:37.206Z,61.20
2019-03-05T08:11:06.546Z,61.00
2019-03-05T08:14:17.510Z,61.10
2019-03-05T08:16:47.030Z,61.10
2019-03-05T08:19:16.513Z,61.10
2019-03-05T08:21:45.981Z,61.00
2019-03-05T08:24:15.487Z,61.20
2019-03-05T08:26:44.817Z,61.10
2019-03-05T08:29:14.167Z,61.20
2019-03-05T08:31:43.597Z,61.10
2019-03-05T08:34:12.898Z,61.10
2019-03-05T08:36:42.125Z,61.30
2019-03-05T08:39:11.490Z,61.20
2019-03-05T08:41:40.803Z,61.20
2019-03-05T08:44:10.371Z,61.20
2019-03-05T08:46:39.808Z,61.40
2019-03-05T08:49:09.275Z,61.30
2019-03-05T08:51:38.626Z,61.20
2019-03-05T08:54:08.015Z,61.30
2019-03-05T08:56:37.448Z,61.30
2019-03-05T08:59:06.995Z,61.30
2019-03-05T09:01:36.477Z,61.30
2019-03-05T09:04:05.982Z,61.30
2019-03-05T09:06:37.017Z,61.40
2019-03-05T09:09:07.351Z,61.40
2019-03-05T09:11:36.747Z,61.30
2019-03-05T09:14:06.010Z,61.40
2019-03-05T09:16:35.352Z,61.40
2019-03-05T09:19:04.641Z,61.40
2019-03-05T09:21:34.075Z,61.40
2019-03-05T09:24:03.401Z,61.40
2019-03-05T09:26:32.722Z,61.40
2019-03-05T09:29:02.015Z,61.50
2019-03-05T09:31:31.325Z,61.50
2019-03-05T09:34:00.847Z,61.50
2019-03-05T09:36:30.395Z,61.50
2019-03-05T09:38:59.840Z,61.50
2019-03-05T09:41:29.120Z,61.50
2019-03-05T09:43:58.484Z,61.50
2019-03-05T09:46:27.903Z,61.60
2019-03-05T09:48:57.213Z,61.60
2019-03-05T09:51:26.544Z,61.60
2019-03-05T09:53:55.856Z,61.80
2019-03-05T09:56:25.383Z,61.60
2019-03-05T09:58:54.814Z,61.60
2019-03-05T10:01:24.137Z,61.80
2019-03-05T10:03:53.463Z,61.80
2019-03-05T10:06:23.167Z,61.80
2019-03-05T10:08:52.555Z,61.80
2019-03-05T10:11:23.411Z,61.80
2019-03-05T10:13:52.953Z,61.90
2019-03-05T10:16:22.650Z,61.90
2019-03-05T10:18:52.122Z,62.00
2019-03-05T10:21:21.593Z,61.90
2019-03-05T10:23:50.902Z,61.90
2019-03-05T10:26:20.235Z,61.90
2019-03-05T10:28:49.638Z,61.80
2019-03-05T10:31:19.061Z,61.90
2019-03-05T10:33:48.619Z,61.90
2019-03-05T10:36:18.035Z,61.90
2019-03-05T10:38:56.903Z,62.00
2019-03-05T10:41:18.509Z,61.90
2019-03-05T10:43:48.008Z,62.00
2019-03-05T10:46:17.487Z,61.90
2019-03-05T10:48:46.839Z,61.80
2019-03-05T10:51:16.635Z,61.90
2019-03-05T10:53:45.835Z,61.90
2019-03-05T10:56:15.144Z,61.80
2019-03-05T10:58:44.958Z,61.80
2019-03-05T11:01:14.608Z,61.80
2019-03-05T11:03:44.015Z,61.80
2019-03-05T11:06:13.422Z,61.90
2019-03-05T11:08:42.897Z,61.70
2019-03-05T11:11:13.723Z,61.70
2019-03-05T11:13:43.515Z,61.70
2019-03-05T11:16:12.916Z,61.70
2019-03-05T11:18:42.337Z,61.70
2019-03-05T11:21:11.724Z,61.70
2019-03-05T11:23:40.989Z,61.50
2019-03-05T11:26:10.473Z,61.60
2019-03-05T11:28:39.994Z,61.60
2019-03-05T11:31:09.591Z,61.70
2019-03-05T11:33:38.940Z,61.70
2019-03-05T11:36:08.432Z,61.40
2019-03-05T11:38:37.936Z,61.50
2019-03-05T11:41:07.422Z,61.60
2019-03-05T11:43:36.746Z,61.40
2019-03-05T11:46:08.259Z,61.40
2019-03-05T11:48:37.576Z,61.30
2019-03-05T11:51:06.875Z,61.40
2019-03-05T11:53:36.224Z,61.40
2019-03-05T11:56:05.709Z,61.30
2019-03-05T11:58:35.189Z,61.40
2019-03-05T12:01:17.699Z,61.30
2019-03-05T12:03:47.054Z,61.30
2019-03-05T12:06:16.423Z,61.20
2019-03-05T12:08:45.917Z,61.20
2019-03-05T12:11:15.226Z,61.30
2019-03-05T12:13:44.720Z,61.30
2019-03-05T12:16:14.995Z,61.20
2019-03-05T12:18:44.343Z,61.10
2019-03-05T12:21:13.575Z,61.00
2019-03-05T12:23:46.691Z,61.00
2019-03-05T12:26:14.110Z,61.00
2019-03-05T12:28:43.621Z,61.00
2019-03-05T12:31:13.150Z,60.90
2019-03-05T12:33:42.697Z,61.00
2019-03-05T12:36:12.406Z,61.10
2019-03-05T12:38:41.890Z,61.00
2019-03-05T12:41:12.719Z,61.00
2019-03-05T12:43:41.974Z,61.10
2019-03-05T12:46:11.397Z,61.00
2019-03-05T12:48:40.917Z,61.00
2019-03-05T12:51:10.464Z,60.90
2019-03-05T12:53:39.811Z,60.80
2019-03-05T12:56:09.492Z,60.80
2019-03-05T12:58:38.796Z,60.80
2019-03-05T13:01:09.015Z,60.70
2019-03-05T13:03:38.482Z,60.70
2019-03-05T13:06:07.747Z,60.80
2019-03-05T13:08:37.180Z,60.70
2019-03-05T13:11:09.373Z,60.70
2019-03-05T13:13:37.733Z,60.70
2019-03-05T13:16:07.702Z,60.60
2019-03-05T13:18:37.172Z,60.70
2019-03-05T13:21:07.793Z,60.70
2019-03-05T13:23:37.587Z,60.60
2019-03-05T13:26:07.541Z,60.60
2019-03-05T13:28:40.466Z,60.60
2019-03-05T13:31:09.005Z,60.60
2019-03-05T13:33:41.841Z,60.50
2019-03-05T13:36:12.625Z,60.60
2019-03-05T13:38:41.693Z,60.60
2019-03-05T13:41:12.196Z,60.60
2019-03-05T13:43:42.715Z,60.50
2019-03-05T13:46:12.097Z,60.60
2019-03-05T13:49:07.622Z,60.50
2019-03-05T13:52:22.658Z,60.50
2019-03-05T13:55:42.891Z,60.50
2019-03-05T13:58:56.274Z,60.40
2019-03-05T14:01:25.543Z,60.40
2019-03-05T14:04:00.069Z,60.50
2019-03-05T14:07:01.760Z,60.40
2019-03-05T14:09:29.656Z,60.30
2019-03-05T14:12:00.274Z,60.30
2019-03-05T14:14:30.559Z,60.40
2019-03-05T14:17:32.179Z,60.30
2019-03-05T14:20:01.563Z,60.30
2019-03-05T14:22:30.883Z,60.20
2019-03-05T14:25:02.590Z,60.10
2019-03-05T14:27:31.550Z,60.20
2019-03-05T14:30:02.761Z,60.20
2019-03-05T14:32:31.941Z,60.10
2019-03-05T14:35:07.550Z,60.00
2019-03-05T14:37:36.974Z,60.00
2019-03-05T14:40:23.390Z,60.30
2019-03-05T14:42:39.391Z,60.00
2019-03-05T14:45:10.982Z,60.00
2019-03-05T14:47:40.425Z,60.10
2019-03-05T14:50:09.694Z,60.00
2019-03-05T14:52:39.295Z,60.00
2019-03-05T14:55:09.756Z,60.00
2019-03-05T14:57:38.995Z,60.00
2019-03-05T15:00:10.556Z,60.00
2019-03-05T15:02:39.854Z,59.90
2019-03-05T15:05:10.109Z,59.90
2019-03-05T15:07:39.545Z,59.90
2019-03-05T15:10:09.380Z,59.90
2019-03-05T15:12:39.106Z,59.90
2019-03-05T15:15:14.836Z,59.80
2019-03-05T15:17:45.935Z,59.80
2019-03-05T15:20:15.277Z,59.90
2019-03-05T15:22:44.878Z,59.80
2019-03-05T15:25:14.450Z,59.80
2019-03-05T15:27:43.759Z,59.70
2019-03-05T15:30:15.202Z,59.60
2019-03-05T15:32:44.339Z,59.80
2019-03-05T15:35:13.755Z,59.70
2019-03-05T15:37:43.275Z,59.60
2019-03-05T15:40:13.546Z,59.80
2019-03-05T15:42:42.856Z,59.60
2019-03-05T15:45:14.325Z,59.70
2019-03-05T15:47:43.740Z,59.70
2019-03-05T15:50:15.427Z,59.70
2019-03-05T15:52:44.854Z,59.70
2019-03-05T15:55:14.682Z,59.60
2019-03-05T15:57:43.984Z,59.70
2019-03-05T16:00:16.668Z,59.80
2019-03-05T16:02:46.081Z,59.70
2019-03-05T16:05:16.594Z,59.70
2019-03-05T16:07:48.151Z,59.70
2019-03-05T16:10:18.819Z,59.50
2019-03-05T16:12:48.153Z,59.70
2019-03-05T16:15:18.756Z,59.50
2019-03-05T16:17:48.447Z,59.40
2019-03-05T16:20:18.479Z,59.50
2019-03-05T16:22:51.191Z,59.50
2019-03-05T16:25:18.765Z,59.30
2019-03-05T16:27:48.270Z,59.50
2019-03-05T16:30:37.538Z,59.30
2019-03-05T16:33:23.875Z,59.30
2019-03-05T16:36:18.539Z,59.30
2019-03-05T16:39:27.333Z,59.30
2019-03-05T16:42:17.928Z,59.40
2019-03-05T16:44:59.043Z,59.40
2019-03-05T16:47:52.945Z,59.40
2019-03-05T16:50:37.401Z,59.40
2019-03-05T16:53:24.477Z,59.50
2019-03-05T16:56:09.994Z,59.50
2019-03-05T16:58:56.474Z,59.50
2019-03-05T17:01:47.085Z,59.50
2019-03-05T17:04:25.920Z,59.50
2019-03-05T17:07:16.952Z,59.60
2019-03-05T17:10:08.061Z,59.50
2019-03-05T17:12:37.474Z,59.70
2019-03-05T17:15:07.128Z,59.60
2019-03-05T17:17:36.549Z,59.70
2019-03-05T17:20:07.044Z,59.80
2019-03-05T17:22:36.447Z,59.70
2019-03-05T17:25:07.600Z,59.70
2019-03-05T17:27:37.246Z,59.80
2019-03-05T17:30:10.140Z,59.80
2019-03-05T17:32:39.422Z,59.80
2019-03-05T17:35:11.534Z,59.80
2019-03-05T17:37:41.030Z,59.90
2019-03-05T17:40:11.393Z,59.80
2019-03-05T17:42:40.839Z,59.90
2019-03-05T17:45:13.157Z,59.90
2019-03-05T17:47:42.522Z,60.00
2019-03-05T17:50:12.185Z,60.00
2019-03-05T17:52:42.053Z,59.90
2019-03-05T17:55:23.572Z,60.00
2019-03-05T17:57:45.267Z,60.00
2019-03-05T18:00:20.706Z,60.00
2019-03-05T18:02:50.194Z,60.10
2019-03-05T18:05:19.648Z,60.00
2019-03-05T18:07:48.929Z,60.10
2019-03-05T18:10:18.729Z,60.10
2019-03-05T18:12:47.986Z,60.10
2019-03-05T18:15:17.956Z,60.10
2019-03-05T18:17:47.376Z,60.20
2019-03-05T18:20:16.910Z,60.20
2019-03-05T18:22:46.448Z,60.20
2019-03-05T18:25:15.999Z,60.10
2019-03-05T18:27:45.413Z,60.20
2019-03-05T18:30:16.614Z,60.20
2019-03-05T18:32:46.078Z,60.00
2019-03-05T18:35:15.632Z,60.10
2019-03-05T18:37:45.387Z,60.20
2019-03-05T18:40:15.688Z,60.20
2019-03-05T18:42:45.126Z,60.20
2019-03-05T18:45:21.731Z,60.10
2019-03-05T18:47:51.133Z,60.20
2019-03-05T18:50:20.876Z,60.20
2019-03-05T18:52:51.246Z,60.20
2019-03-05T18:55:21.147Z,60.20
2019-03-05T18:57:51.730Z,60.10
2019-03-05T19:00:22.611Z,60.10
2019-03-05T19:02:54.151Z,60.00
2019-03-05T19:05:23.698Z,60.00
2019-03-05T19:07:53.451Z,60.00
2019-03-05T19:10:24.374Z,60.20
2019-03-05T19:12:55.066Z,60.10
2019-03-05T19:15:24.487Z,60.10
2019-03-05T19:17:53.958Z,60.10
2019-03-05T19:20:24.087Z,60.20
2019-03-05T19:22:53.335Z,60.30
2019-03-05T19:25:24.416Z,60.20
2019-03-05T19:27:53.839Z,60.20
2019-03-05T19:30:28.618Z,60.20
2019-03-05T19:32:57.949Z,60.10
2019-03-05T19:35:28.430Z,60.10
2019-03-05T19:37:57.737Z,60.10
2019-03-05T19:40:29.475Z,60.20
2019-03-05T19:42:58.889Z,60.30
2019-03-05T19:45:28.345Z,60.10
2019-03-05T19:47:57.676Z,60.20
2019-03-05T19:50:27.160Z,60.20
2019-03-05T19:52:56.389Z,60.20
2019-03-05T19:55:25.812Z,60.20
2019-03-05T19:58:08.378Z,60.30
2019-03-05T20:00:41.501Z,60.20
2019-03-05T20:03:10.808Z,60.20
2019-03-05T20:05:40.242Z,60.20
2019-03-05T20:08:09.691Z,60.20
2019-03-05T20:10:39.226Z,60.30
2019-03-05T20:13:08.998Z,60.40
2019-03-05T20:15:38.394Z,60.20
2019-03-05T20:18:07.929Z,60.20
2019-03-05T20:20:37.399Z,60.40
2019-03-05T20:23:06.662Z,60.30
2019-03-05T20:25:35.997Z,60.20
2019-03-05T20:28:05.321Z,60.40
2019-03-05T20:30:34.814Z,60.30
2019-03-05T20:33:04.329Z,60.40
2019-03-05T20:35:33.794Z,60.40
2019-03-05T20:38:04.778Z,60.50
2019-03-05T20:40:34.036Z,60.40
2019-03-05T20:43:03.389Z,60.50
2019-03-05T20:45:32.869Z,60.40
2019-03-05T20:48:02.400Z,60.50
2019-03-05T20:50:32.062Z,60.40
2019-03-05T20:53:01.886Z,60.40
2019-03-05T20:55:31.327Z,60.40
2019-03-05T20:58:02.662Z,60.50
2019-03-05T21:00:32.353Z,60.30
2019-03-05T21:03:03.011Z,60.40
2019-03-05T21:05:37.477Z,60.40
2019-03-05T21:08:06.889Z,60.40
2019-03-05T21:10:36.300Z,60.30
2019-03-05T21:13:05.673Z,60.40
2019-03-05T21:15:35.128Z,60.50
2019-03-05T21:18:05.628Z,60.40
2019-03-05T21:20:35.070Z,60.60
2019-03-05T21:23:04.442Z,60.60
2019-03-05T21:25:33.934Z,60.50
2019-03-05T21:28:03.250Z,60.50
2019-03-05T21:30:32.499Z,60.50
2019-03-05T21:33:01.738Z,60.50
2019-03-05T21:35:31.062Z,60.60
2019-03-05T21:38:00.539Z,60.60
2019-03-05T21:40:29.953Z,60.60
2019-03-05T21:42:59.197Z,60.50
2019-03-05T21:45:33.741Z,60.50
2019-03-05T21:48:03.391Z,60.60
2019-03-05T21:50:32.861Z,60.50
2019-03-05T21:53:02.249Z,60.60
2019-03-05T21:55:31.768Z,60.60
2019-03-05T21:58:01.197Z,60.70
2019-03-05T22:00:30.906Z,60.70
2019-03-05T22:03:00.422Z,60.70
2019-03-05T22:05:29.746Z,60.60
2019-03-05T22:07:59.236Z,60.60
2019-03-05T22:10:28.741Z,60.70
2019-03-05T22:12:58.085Z,60.70
2019-03-05T22:15:27.557Z,60.70
2019-03-05T22:17:57.007Z,60.70
2019-03-05T22:20:26.366Z,60.60
2019-03-05T22:22:55.848Z,60.70
2019-03-05T22:25:25.256Z,60.70
2019-03-05T22:27:54.676Z,60.70
2019-03-05T22:30:25.779Z,60.70
2019-03-05T22:32:55.083Z,60.70
2019-03-05T22:35:24.620Z,60.80
2019-03-05T22:37:54.070Z,60.70
2019-03-05T22:40:23.593Z,60.70
2019-03-05T22:42:52.879Z,60.80
2019-03-05T22:45:23.254Z,60.80
2019-03-05T22:47:52.732Z,60.70
2019-03-05T22:50:22.073Z,60.80
2019-03-05T22:52:51.790Z,60.80
2019-03-05T22:55:21.167Z,60.80
2019-03-05T22:57:50.513Z,60.90
2019-03-05T23:00:50.239Z,60.90
2019-03-05T23:03:20.859Z,60.90
2019-03-05T23:05:50.891Z,60.80
2019-03-05T23:08:21.215Z,60.90
2019-03-05T23:10:50.675Z,60.80
2019-03-05T23:13:20.144Z,60.90
2019-03-05T23:15:49.529Z,60.90
2019-03-05T23:18:18.997Z,61.00
2019-03-05T23:20:48.337Z,60.90
2019-03-05T23:23:18.102Z,60.90
2019-03-05T23:25:47.397Z,61.00
2019-03-05T23:28:16.670Z,60.90
2019-03-05T23:30:46.142Z,60.90
2019-03-05T23:33:15.603Z,61.00
2019-03-05T23:35:49.211Z,61.00
2019-03-05T23:38:18.606Z,60.90
2019-03-05T23:40:50.014Z,61.00
2019-03-05T23:43:19.176Z,61.00
2019-03-05T23:45:48.563Z,61.00
2019-03-05T23:48:17.939Z,61.10
2019-03-05T23:50:47.462Z,61.10
2019-03-05T23:53:17.295Z,61.10
2019-03-05T23:55:46.697Z,61.00
2019-03-05T23:58:16.175Z,61.10
